Time;durP1;ratioP1;P1;durP2;ratioP2;P2;SDS_P1;SDS_P2;PMS_P1;PMS_P2;Temp;Humidity;BMP_temperature;BMP_pressure;BME280_temperature;BME280_humidity;BME280_pressure;Samples;Min_cycle;Max_cycle;Signal;HPM_P1;HPM_P2
2022/08/02 03:01:36;;;;;;;0.80;0.70;;;20.80;82.40;;;;;;5682719;22;20549;-74
2022/08/02 03:04:06;;;;;;;0.70;0.60;;;20.80;82.20;;;;;;5032855;28;20510;-73
2022/08/02 03:06:33;;;;;;;0.70;0.60;;;20.90;82.10;;;;;;5035581;28;20479;-74
2022/08/02 03:09:00;;;;;;;0.70;0.60;;;20.90;81.90;;;;;;5036669;28;20458;-74
2022/08/02 03:11:28;;;;;;;0.70;0.70;;;21.00;81.70;;;;;;5036501;28;20880;-74
2022/08/02 03:13:57;;;;;;;0.90;0.67;;;21.00;81.50;;;;;;5036523;28;20455;-73
2022/08/02 03:16:24;;;;;;;0.70;0.60;;;21.00;81.30;;;;;;5037691;28;20944;-73
2022/08/02 03:18:52;;;;;;;0.70;0.60;;;21.00;81.30;;;;;;5036435;28;20477;-73
2022/08/02 03:21:18;;;;;;;0.70;0.60;;;20.90;81.50;;;;;;5036320;28;20467;-73
2022/08/02 03:23:45;;;;;;;1.77;0.70;;;20.90;81.70;;;;;;5036344;28;20507;-73
2022/08/02 03:26:12;;;;;;;1.30;0.60;;;20.90;81.60;;;;;;5036214;28;20448;-73
2022/08/02 03:28:40;;;;;;;0.70;0.60;;;20.90;81.40;;;;;;5036198;28;20451;-74
2022/08/02 03:31:07;;;;;;;0.70;0.70;;;20.90;81.20;;;;;;5036080;28;20522;-73
2022/08/02 03:33:35;;;;;;;0.70;0.60;;;20.90;81.20;;;;;;5036162;28;20497;-72
2022/08/02 03:36:08;;;;;;;0.70;0.60;;;20.80;81.20;;;;;;5036128;28;20443;-73
2022/08/02 03:38:36;;;;;;;0.70;0.70;;;20.90;81.20;;;;;;5035838;28;20954;-73
2022/08/02 03:41:03;;;;;;;0.70;0.60;;;20.90;81.10;;;;;;5035920;28;20467;-73
2022/08/02 03:43:31;;;;;;;0.70;0.60;;;20.90;81.00;;;;;;5035815;28;20554;-74
2022/08/02 03:45:58;;;;;;;0.70;0.60;;;20.80;81.10;;;;;;5035858;28;20860;-74
2022/08/02 03:48:27;;;;;;;1.07;0.60;;;20.80;81.00;;;;;;5035908;28;20448;-74
2022/08/02 03:50:55;;;;;;;1.10;0.70;;;20.90;80.90;;;;;;5035698;28;20471;-73
2022/08/02 03:53:23;;;;;;;0.70;0.70;;;20.80;80.90;;;;;;5035776;28;20490;-74
2022/08/02 03:55:50;;;;;;;0.70;0.60;;;20.10;82.70;;;;;;5035695;28;20443;-74
2022/08/02 03:58:18;;;;;;;0.70;0.70;;;20.10;82.90;;;;;;5035655;28;20498;-74
2022/08/02 04:00:45;;;;;;;0.70;0.50;;;20.10;82.90;;;;;;5035728;28;20543;-73
2022/08/02 04:03:12;;;;;;;0.80;0.70;;;20.30;82.30;;;;;;5035600;28;20472;-74
2022/08/02 04:05:38;;;;;;;1.13;0.70;;;20.30;82.20;;;;;;5035258;28;20819;-74
2022/08/02 04:08:05;;;;;;;0.90;0.60;;;20.40;81.70;;;;;;5035492;28;20514;-74
2022/08/02 04:11:29;;;;;;;0.70;0.60;;;20.50;81.50;;;;;;5035406;28;20455;-73
2022/08/02 04:13:22;;;;;;;0.90;0.60;;;20.40;81.40;;;;;;5035040;28;20816;-73
2022/08/02 04:15:53;;;;;;;0.70;0.60;;;20.50;81.40;;;;;;5035013;28;20452;-74
2022/08/02 04:18:22;;;;;;;0.70;0.70;;;20.60;81.30;;;;;;5034740;28;20466;-74
2022/08/02 04:20:51;;;;;;;0.87;0.53;;;20.60;81.20;;;;;;5035147;28;20475;-74
2022/08/02 04:23:18;;;;;;;0.60;0.53;;;20.60;81.00;;;;;;5035129;28;20475;-74
2022/08/02 04:25:46;;;;;;;0.77;0.77;;;20.70;81.00;;;;;;5034911;28;20821;-74
2022/08/02 04:28:16;;;;;;;0.70;0.60;;;20.70;80.90;;;;;;5035165;28;20447;-74
2022/08/02 04:30:43;;;;;;;1.00;0.60;;;20.70;80.80;;;;;;5035377;28;20472;-73
2022/08/02 04:33:10;;;;;;;0.80;0.60;;;20.80;80.60;;;;;;5035035;28;20440;-73
2022/08/02 04:35:37;;;;;;;0.70;0.60;;;20.90;80.30;;;;;;5034636;28;20857;-74
2022/08/02 04:38:04;;;;;;;0.80;0.70;;;20.60;80.60;;;;;;5035004;28;20451;-74
2022/08/02 04:40:31;;;;;;;0.70;0.70;;;20.60;81.20;;;;;;5034821;28;20456;-74
2022/08/02 04:42:59;;;;;;;0.70;0.60;;;20.30;82.00;;;;;;5034746;28;20444;-74
2022/08/02 04:45:26;;;;;;;1.37;0.80;;;20.50;81.70;;;;;;5034770;28;20451;-74
2022/08/02 04:47:53;;;;;;;0.70;0.60;;;20.70;81.20;;;;;;5034743;28;20451;-73
2022/08/02 04:50:20;;;;;;;0.70;0.60;;;20.80;80.90;;;;;;5034753;28;20452;-74
2022/08/02 04:52:46;;;;;;;0.70;0.60;;;20.90;80.80;;;;;;5034716;28;20558;-74
2022/08/02 04:55:14;;;;;;;0.80;0.60;;;21.00;80.80;;;;;;5034663;28;20490;-74
2022/08/02 04:57:56;;;;;;;0.70;0.70;;;21.00;80.90;;;;;;5034628;28;20447;-74
2022/08/02 05:00:25;;;;;;;0.70;0.60;;;21.10;80.50;;;;;;5034448;28;20494;-74
2022/08/02 05:02:52;;;;;;;0.70;0.60;;;21.30;80.40;;;;;;5034121;28;20522;-74
2022/08/02 05:05:19;;;;;;;0.70;0.60;;;21.40;80.20;;;;;;5034509;28;20467;-74
2022/08/02 05:07:46;;;;;;;0.80;0.60;;;21.50;79.90;;;;;;5034406;28;20632;-74
2022/08/02 05:10:13;;;;;;;0.70;0.60;;;21.50;79.90;;;;;;5034091;28;20891;-74
2022/08/02 05:12:41;;;;;;;0.90;0.60;;;21.60;79.90;;;;;;5034333;28;20566;-74
2022/08/02 05:15:09;;;;;;;0.70;0.60;;;21.70;79.90;;;;;;5033973;28;20474;-74
2022/08/02 05:17:37;;;;;;;0.70;0.70;;;21.80;79.20;;;;;;5034275;28;20447;-74
2022/08/02 05:20:05;;;;;;;0.70;0.60;;;21.90;79.10;;;;;;5034269;28;20451;-74
2022/08/02 05:22:31;;;;;;;0.80;0.63;;;22.00;79.10;;;;;;5034097;28;20478;-74
2022/08/02 05:24:58;;;;;;;0.70;0.60;;;22.10;78.90;;;;;;5034076;28;20490;-74
2022/08/02 05:27:25;;;;;;;1.00;0.60;;;22.20;78.50;;;;;;5034246;28;20534;-74
2022/08/02 05:29:53;;;;;;;0.70;0.70;;;22.30;78.40;;;;;;5033162;28;20447;-74
2022/08/02 05:32:20;;;;;;;0.70;0.60;;;22.30;78.10;;;;;;5034052;28;20471;-74
2022/08/02 05:34:48;;;;;;;0.70;0.50;;;22.40;77.60;;;;;;5033960;28;20459;-74
2022/08/02 05:37:14;;;;;;;0.80;0.60;;;22.40;77.40;;;;;;5033924;28;20459;-74
2022/08/02 05:39:41;;;;;;;0.70;0.60;;;22.40;78.60;;;;;;5033929;28;20447;-74
2022/08/02 05:42:08;;;;;;;0.70;0.70;;;22.60;78.00;;;;;;5033695;28;20479;-74
2022/08/02 05:44:34;;;;;;;1.00;0.70;;;22.80;78.30;;;;;;5033876;28;20483;-74
2022/08/02 05:47:01;;;;;;;0.70;0.70;;;23.00;77.70;;;;;;5034007;28;20444;-74
2022/08/02 05:49:28;;;;;;;0.70;0.60;;;23.20;77.00;;;;;;5034127;28;20456;-74
2022/08/02 05:52:04;;;;;;;0.70;0.60;;;23.40;76.60;;;;;;5034082;28;20478;-74
2022/08/02 05:54:36;;;;;;;0.70;0.60;;;23.60;76.00;;;;;;5034083;28;20438;-74
2022/08/02 05:57:07;;;;;;;0.70;0.60;;;23.70;75.70;;;;;;5033740;28;20498;-74
2022/08/02 05:59:39;;;;;;;0.70;0.70;;;23.60;74.70;;;;;;5033975;28;20435;-74
2022/08/02 06:02:23;;;;;;;0.80;0.60;;;23.60;75.70;;;;;;5033674;28;20483;-73
2022/08/02 06:04:59;;;;;;;0.70;0.60;;;23.40;75.00;;;;;;5033532;28;20867;-74
2022/08/02 06:07:27;;;;;;;0.70;0.70;;;23.20;75.80;;;;;;5033613;28;20596;-74
2022/08/02 06:09:54;;;;;;;0.70;0.70;;;23.20;76.00;;;;;;5033815;28;20443;-74
2022/08/02 06:12:21;;;;;;;0.80;0.60;;;23.30;76.10;;;;;;5033539;28;20838;-74
2022/08/02 06:14:49;;;;;;;0.70;0.60;;;23.30;76.20;;;;;;5033593;28;20943;-74
2022/08/02 06:17:17;;;;;;;0.70;0.50;;;22.90;77.30;;;;;;5033318;28;20942;-74
2022/08/02 06:19:46;;;;;;;0.70;0.50;;;22.80;78.20;;;;;;5033322;28;20459;-74
2022/08/02 06:22:15;;;;;;;0.70;0.60;;;22.60;79.40;;;;;;5033600;28;20467;-74
2022/08/02 06:24:46;;;;;;;0.70;0.63;;;22.40;80.20;;;;;;5034038;28;20483;-74
2022/08/02 06:27:13;;;;;;;0.80;0.67;;;22.50;79.90;;;;;;5033747;28;20440;-74
2022/08/02 06:29:42;;;;;;;0.70;0.60;;;22.60;80.20;;;;;;5033559;28;20451;-74
2022/08/02 06:32:10;;;;;;;0.80;0.60;;;22.90;80.00;;;;;;5033601;28;20554;-74
2022/08/02 06:34:38;;;;;;;0.90;0.80;;;23.00;78.30;;;;;;5033758;28;20451;-74
2022/08/02 06:37:13;;;;;;;0.70;0.60;;;23.00;78.50;;;;;;5033810;28;20451;-74
2022/08/02 06:39:46;;;;;;;0.70;0.60;;;23.00;78.80;;;;;;5033288;28;20443;-74
2022/08/02 06:42:17;;;;;;;0.90;0.60;;;23.30;78.00;;;;;;5036937;28;20498;-74
2022/08/02 06:44:43;;;;;;;0.70;0.60;;;23.50;77.30;;;;;;5037081;28;20976;-74
2022/08/02 06:47:10;;;;;;;0.70;0.60;;;23.90;75.90;;;;;;5037476;28;20506;-73
2022/08/02 06:49:37;;;;;;;0.70;0.63;;;24.10;74.50;;;;;;5037240;28;20455;-72
2022/08/02 06:52:04;;;;;;;0.80;0.70;;;24.40;74.30;;;;;;5037084;28;20467;-70
2022/08/02 06:54:31;;;;;;;0.70;0.60;;;24.70;73.30;;;;;;5036875;28;20454;-71
2022/08/02 06:56:59;;;;;;;0.80;0.60;;;25.00;72.00;;;;;;5036817;28;20447;-72
2022/08/02 06:59:25;;;;;;;0.80;0.63;;;25.20;71.60;;;;;;5036733;28;20505;-72
2022/08/02 07:01:53;;;;;;;0.80;0.80;;;25.30;72.50;;;;;;5036367;28;20522;-72
2022/08/02 07:04:19;;;;;;;1.30;0.60;;;25.30;72.60;;;;;;5036678;28;20487;-71
2022/08/02 07:06:46;;;;;;;0.70;0.60;;;25.30;71.80;;;;;;5036655;28;20470;-71
2022/08/02 07:09:37;;;;;;;0.70;0.70;;;25.00;72.00;;;;;;5036559;28;20861;-72
2022/08/02 07:12:05;;;;;;;0.70;0.70;;;24.30;74.60;;;;;;5036687;28;20550;-72
2022/08/02 07:14:32;;;;;;;0.70;0.70;;;24.10;75.50;;;;;;5036486;28;20470;-72
2022/08/02 07:16:59;;;;;;;0.70;0.70;;;23.90;75.00;;;;;;5036416;28;20444;-73
2022/08/02 07:19:26;;;;;;;0.70;0.70;;;23.90;76.00;;;;;;5036389;28;20448;-73
2022/08/02 07:21:53;;;;;;;1.43;0.80;;;24.10;75.60;;;;;;5036241;28;20467;-73
2022/08/02 07:24:19;;;;;;;0.70;0.70;;;24.20;76.10;;;;;;5036227;28;20541;-73
2022/08/02 07:26:46;;;;;;;0.80;0.70;;;24.70;74.60;;;;;;5036256;28;20481;-75
2022/08/02 07:29:14;;;;;;;0.70;0.60;;;24.80;72.80;;;;;;5036259;28;20456;-73
2022/08/02 07:31:41;;;;;;;0.90;0.70;;;24.80;72.60;;;;;;5036094;28;20467;-74
2022/08/02 07:34:07;;;;;;;0.90;0.70;;;24.90;73.60;;;;;;5036096;28;20505;-73
2022/08/02 07:36:35;;;;;;;0.90;0.70;;;24.50;73.70;;;;;;5036083;28;20451;-74
2022/08/02 07:39:02;;;;;;;0.80;0.80;;;24.50;73.80;;;;;;5036028;28;20846;-74
2022/08/02 07:41:29;;;;;;;0.97;0.70;;;24.80;74.70;;;;;;5036693;28;20474;-73
2022/08/02 07:43:55;;;;;;;0.90;0.80;;;25.00;72.60;;;;;;5035865;28;20460;-73
2022/08/02 07:46:24;;;;;;;1.40;0.60;;;25.00;73.80;;;;;;5035892;28;20443;-73
2022/08/02 07:48:52;;;;;;;1.13;0.70;;;25.30;73.20;;;;;;5036116;28;20505;-73
2022/08/02 07:51:18;;;;;;;0.70;0.63;;;24.90;73.30;;;;;;5035394;28;20980;-74
2022/08/02 07:53:45;;;;;;;0.80;0.80;;;25.10;73.80;;;;;;5035085;28;20475;-72
2022/08/02 07:56:12;;;;;;;0.70;0.70;;;25.00;73.30;;;;;;5035357;28;20843;-73
2022/08/02 07:58:40;;;;;;;0.70;0.70;;;25.20;72.80;;;;;;5035677;28;20454;-73
2022/08/02 08:01:07;;;;;;;1.20;1.00;;;25.10;72.50;;;;;;5035411;28;20490;-74
2022/08/02 08:03:35;;;;;;;0.80;0.80;;;25.30;71.70;;;;;;5035797;28;20435;-73
2022/08/02 08:06:02;;;;;;;0.70;0.70;;;25.20;71.30;;;;;;5035399;28;20479;-73
2022/08/02 08:08:29;;;;;;;0.80;0.70;;;25.00;73.10;;;;;;5035421;28;20455;-73
2022/08/02 08:10:55;;;;;;;0.80;0.70;;;25.30;73.40;;;;;;5035574;28;20467;-73
2022/08/02 08:13:22;;;;;;;0.80;0.60;;;25.40;72.10;;;;;;5035275;28;20505;-73
2022/08/02 08:15:48;;;;;;;0.70;0.70;;;25.60;72.10;;;;;;5035362;28;20443;-74
2022/08/02 08:18:15;;;;;;;0.70;0.70;;;25.70;71.70;;;;;;5035223;28;20451;-73
2022/08/02 08:20:43;;;;;;;0.70;0.70;;;26.10;70.90;;;;;;5035162;28;20562;-73
2022/08/02 08:23:10;;;;;;;0.70;0.60;;;26.60;69.90;;;;;;5035164;28;20482;-73
2022/08/02 08:25:36;;;;;;;0.80;0.80;;;26.80;68.70;;;;;;5035085;28;20525;-73
2022/08/02 08:28:04;;;;;;;0.70;0.70;;;27.00;67.10;;;;;;5035165;28;20455;-72
2022/08/02 08:30:30;;;;;;;0.70;0.70;;;27.10;69.40;;;;;;5035068;28;20439;-73
2022/08/02 08:32:57;;;;;;;0.80;0.80;;;27.30;67.60;;;;;;5034728;28;20460;-73
2022/08/02 08:35:23;;;;;;;0.70;0.70;;;27.50;67.50;;;;;;5035008;28;20444;-73
2022/08/02 08:37:52;;;;;;;0.80;0.77;;;27.50;66.80;;;;;;5035036;28;20502;-74
2022/08/02 08:40:19;;;;;;;0.70;0.60;;;27.50;66.50;;;;;;5035026;28;20531;-74
2022/08/02 08:42:45;;;;;;;0.70;0.70;;;27.60;66.40;;;;;;5034845;28;20471;-73
2022/08/02 08:45:12;;;;;;;0.90;0.80;;;27.10;67.00;;;;;;5034741;28;20479;-74
2022/08/02 08:47:41;;;;;;;1.07;0.70;;;26.90;67.30;;;;;;5034787;28;20457;-74
2022/08/02 08:50:10;;;;;;;1.00;0.83;;;26.60;68.10;;;;;;5034774;28;20479;-73
2022/08/02 08:52:43;;;;;;;1.10;1.00;;;26.20;68.70;;;;;;5034677;28;20472;-74
2022/08/02 08:55:11;;;;;;;0.70;0.70;;;26.10;68.90;;;;;;5034733;28;20431;-74
2022/08/02 08:57:40;;;;;;;0.90;0.80;;;26.10;70.10;;;;;;5034687;28;20526;-74
2022/08/02 09:00:08;;;;;;;0.70;0.70;;;26.20;68.80;;;;;;5034585;28;20501;-74
2022/08/02 09:02:36;;;;;;;0.70;0.70;;;26.00;68.30;;;;;;5034477;28;20486;-74
2022/08/02 09:05:03;;;;;;;1.00;0.80;;;26.10;69.10;;;;;;5034321;28;20533;-73
2022/08/02 09:07:30;;;;;;;0.70;0.70;;;26.20;68.50;;;;;;5034603;28;20958;-74
2022/08/02 09:09:56;;;;;;;0.70;0.70;;;26.40;68.50;;;;;;5034968;28;20452;-74
2022/08/02 09:12:24;;;;;;;0.80;0.70;;;26.40;67.70;;;;;;5034843;28;20493;-73
2022/08/02 09:14:51;;;;;;;0.70;0.70;;;26.40;67.10;;;;;;5035822;28;20475;-74
2022/08/02 09:17:19;;;;;;;0.70;0.70;;;26.10;66.90;;;;;;5034176;28;20440;-73
2022/08/02 09:19:46;;;;;;;1.00;0.90;;;26.20;67.80;;;;;;5034531;28;20486;-74
2022/08/02 09:22:14;;;;;;;0.90;0.73;;;26.20;67.00;;;;;;5034407;28;20474;-74
2022/08/02 09:24:45;;;;;;;0.80;0.70;;;26.20;69.20;;;;;;5034585;28;20483;-75
2022/08/02 09:27:13;;;;;;;0.80;0.80;;;26.50;67.40;;;;;;5034111;28;20970;-74
2022/08/02 09:29:46;;;;;;;0.80;0.80;;;26.50;66.70;;;;;;5033773;28;20458;-74
2022/08/02 09:32:12;;;;;;;0.70;0.70;;;26.50;65.90;;;;;;5033944;28;20486;-74
2022/08/02 09:34:47;;;;;;;0.70;0.60;;;26.70;66.70;;;;;;5033929;28;20448;-74
2022/08/02 09:37:28;;;;;;;0.80;0.80;;;26.80;66.70;;;;;;5033984;28;20451;-74
2022/08/02 09:39:55;;;;;;;0.70;0.60;;;26.80;65.30;;;;;;5033890;28;20462;-74
2022/08/02 09:42:22;;;;;;;0.80;0.80;;;26.90;66.30;;;;;;5033493;28;21001;-75
2022/08/02 09:44:58;;;;;;;0.80;0.80;;;26.90;63.80;;;;;;5033806;28;20483;-74
2022/08/02 09:47:25;;;;;;;0.83;0.83;;;27.20;63.60;;;;;;5034180;28;20447;-75
2022/08/02 09:49:54;;;;;;;0.87;0.70;;;27.40;62.60;;;;;;5033793;28;20447;-74
2022/08/02 09:52:27;;;;;;;0.70;0.70;;;27.40;62.60;;;;;;5033473;28;20913;-74
2022/08/02 09:54:54;;;;;;;0.70;0.70;;;27.30;63.30;;;;;;5033799;28;20447;-75
2022/08/02 09:57:26;;;;;;;0.80;0.70;;;27.10;62.80;;;;;;5033836;28;20459;-74
2022/08/02 09:59:56;;;;;;;1.27;0.70;;;27.10;64.40;;;;;;5033654;28;20484;-74
2022/08/02 10:02:23;;;;;;;0.70;0.70;;;27.30;64.00;;;;;;5033626;28;20482;-74
2022/08/02 10:04:50;;;;;;;0.70;0.70;;;27.30;63.10;;;;;;5033909;28;20491;-75
2022/08/02 10:07:18;;;;;;;0.70;0.70;;;27.60;62.70;;;;;;5033540;28;20517;-74
2022/08/02 10:09:45;;;;;;;0.70;0.70;;;27.60;61.70;;;;;;5033537;28;20448;-74
2022/08/02 10:12:12;;;;;;;0.70;0.70;;;27.40;62.00;;;;;;5033605;28;20468;-74
2022/08/02 10:14:39;;;;;;;1.10;0.70;;;27.30;62.80;;;;;;5032903;28;20962;-75
2022/08/02 10:17:07;;;;;;;0.77;0.70;;;27.30;62.90;;;;;;5033139;28;20455;-74
2022/08/02 10:19:34;;;;;;;0.80;0.80;;;27.30;61.50;;;;;;5033315;28;20451;-74
2022/08/02 10:22:05;;;;;;;0.70;0.70;;;27.30;62.10;;;;;;5033706;28;20467;-75
2022/08/02 10:24:35;;;;;;;0.70;0.70;;;27.30;61.50;;;;;;5033243;28;20432;-75
2022/08/02 10:27:03;;;;;;;0.77;0.73;;;27.60;62.10;;;;;;5033331;28;20436;-74
2022/08/02 10:29:37;;;;;;;0.97;0.70;;;27.50;60.80;;;;;;5033490;28;20448;-74
2022/08/02 10:32:09;;;;;;;0.80;0.80;;;27.60;60.40;;;;;;5033284;28;20525;-75
2022/08/02 10:34:40;;;;;;;0.70;0.60;;;27.70;60.10;;;;;;5033536;28;20436;-75
2022/08/02 10:37:09;;;;;;;0.70;0.70;;;27.70;60.00;;;;;;5033444;28;20842;-75
2022/08/02 10:39:40;;;;;;;0.73;0.70;;;27.90;60.30;;;;;;5033188;28;20497;-75
2022/08/02 10:42:07;;;;;;;0.70;0.70;;;28.40;59.70;;;;;;5033172;28;20467;-75
2022/08/02 10:44:34;;;;;;;0.90;0.70;;;28.40;59.00;;;;;;5033582;28;20451;-76
2022/08/02 10:47:24;;;;;;;0.70;0.60;;;28.30;58.10;;;;;;5033127;28;20452;-76
2022/08/02 10:49:53;;;;;;;0.70;0.60;;;28.40;58.00;;;;;;5028712;28;20447;-75
2022/08/02 10:52:20;;;;;;;2.60;0.70;;;28.50;59.50;;;;;;5033187;28;20478;-75
2022/08/02 10:54:54;;;;;;;0.70;0.70;;;28.50;57.80;;;;;;5033191;28;20451;-76
2022/08/02 10:57:23;;;;;;;0.70;0.60;;;28.40;58.50;;;;;;5033088;28;20506;-75
2022/08/02 10:59:51;;;;;;;0.97;0.90;;;28.40;58.60;;;;;;5032971;28;20454;-76
2022/08/02 11:02:40;;;;;;;0.90;0.70;;;28.10;58.90;;;;;;5033109;28;20475;-76
2022/08/02 11:05:18;;;;;;;0.70;0.60;;;28.10;59.60;;;;;;5033119;28;20534;-75
2022/08/02 11:07:47;;;;;;;1.00;0.80;;;27.90;60.40;;;;;;5032885;28;20435;-75
2022/08/02 11:10:35;;;;;;;0.70;0.70;;;27.60;60.30;;;;;;5032948;28;20451;-76
2022/08/02 11:13:05;;;;;;;0.80;0.70;;;27.60;60.60;;;;;;5032933;28;20451;-76
2022/08/02 11:15:52;;;;;;;0.70;0.70;;;27.70;60.30;;;;;;5032796;28;20419;-76
2022/08/02 11:18:21;;;;;;;0.70;0.70;;;27.70;60.50;;;;;;5032972;28;20958;-76
2022/08/02 11:21:21;;;;;;;0.80;0.60;;;28.00;61.50;;;;;;5033298;28;20489;-76
2022/08/02 11:23:48;;;;;;;0.70;0.70;;;28.60;60.00;;;;;;5033039;28;20502;-76
2022/08/02 11:26:43;;;;;;;0.70;0.60;;;28.80;58.30;;;;;;5032666;28;20494;-75
2022/08/02 11:29:10;;;;;;;0.70;0.70;;;29.10;57.70;;;;;;5036060;28;20531;-75
2022/08/02 11:31:42;;;;;;;0.80;0.80;;;29.20;56.80;;;;;;5036213;28;20475;-76
2022/08/02 11:34:10;;;;;;;0.80;0.70;;;29.30;56.80;;;;;;5035918;28;20942;-75
2022/08/02 11:36:45;;;;;;;0.80;0.60;;;29.60;55.90;;;;;;5036245;28;20818;-75
2022/08/02 11:39:13;;;;;;;1.00;0.90;;;29.70;55.50;;;;;;5037399;28;20454;-75
2022/08/02 11:41:40;;;;;;;0.70;0.70;;;29.80;54.20;;;;;;5036399;28;20553;-75
2022/08/02 11:44:07;;;;;;;0.70;0.60;;;29.70;54.30;;;;;;5035859;28;20860;-75
2022/08/02 11:46:34;;;;;;;0.70;0.70;;;29.70;54.10;;;;;;5035793;28;20892;-75
2022/08/02 11:49:16;;;;;;;0.70;0.60;;;29.50;53.50;;;;;;5036154;28;20554;-73
2022/08/02 11:51:59;;;;;;;0.70;0.60;;;29.40;54.20;;;;;;5036056;28;20498;-74
2022/08/02 11:54:27;;;;;;;0.77;0.77;;;29.50;55.10;;;;;;5036247;28;20439;-75
2022/08/02 11:56:54;;;;;;;0.90;0.80;;;29.00;55.40;;;;;;5036099;28;20455;-75
2022/08/02 11:59:21;;;;;;;0.70;0.70;;;28.90;56.90;;;;;;5035793;28;20542;-75
2022/08/02 12:01:48;;;;;;;0.90;0.70;;;29.00;54.60;;;;;;5035428;28;20483;-74
2022/08/02 12:04:20;;;;;;;0.70;0.70;;;28.80;55.30;;;;;;5035585;28;20505;-75
2022/08/02 12:06:58;;;;;;;0.90;0.67;;;29.00;57.00;;;;;;5035485;28;20474;-75
2022/08/02 12:09:26;;;;;;;0.80;0.80;;;29.00;55.10;;;;;;5035647;28;20949;-75
2022/08/02 12:11:53;;;;;;;1.20;0.70;;;29.20;56.00;;;;;;5035471;28;20471;-75
2022/08/02 12:14:21;;;;;;;0.73;0.73;;;29.00;55.40;;;;;;5035514;28;20451;-74
2022/08/02 12:19:35;;;;;;;0.80;0.60;;;28.70;56.30;;;;;;5035499;28;20403;-75
2022/08/02 12:22:17;;;;;;;0.80;0.80;;;29.00;56.60;;;;;;5035322;28;20475;-75
2022/08/02 12:24:46;;;;;;;0.70;0.70;;;29.20;54.60;;;;;;5035460;28;20452;-76
2022/08/02 12:27:29;;;;;;;0.70;0.50;;;29.20;56.10;;;;;;5034883;28;21017;-75
2022/08/02 12:30:01;;;;;;;0.80;0.70;;;29.40;54.40;;;;;;5035375;28;20438;-75
2022/08/02 12:32:28;;;;;;;0.80;0.70;;;29.80;55.40;;;;;;5035274;28;20533;-75
2022/08/02 12:35:05;;;;;;;0.70;0.70;;;30.10;55.90;;;;;;5035074;28;20801;-75
2022/08/02 12:37:32;;;;;;;0.80;0.70;;;30.10;53.90;;;;;;5035148;28;20432;-75
2022/08/02 12:39:59;;;;;;;0.70;0.60;;;30.30;55.20;;;;;;5034723;28;20452;-75
2022/08/02 12:42:25;;;;;;;0.97;0.70;;;30.60;52.60;;;;;;5034908;28;20510;-76
2022/08/02 12:44:53;;;;;;;0.80;0.80;;;30.70;51.60;;;;;;5035629;28;20455;-75
2022/08/02 12:47:21;;;;;;;0.90;0.70;;;30.90;52.60;;;;;;5035351;28;20478;-74
2022/08/02 12:49:47;;;;;;;0.80;0.80;;;31.10;52.30;;;;;;5034755;28;20998;-75
2022/08/02 12:52:23;;;;;;;0.70;0.60;;;31.20;52.30;;;;;;5034559;28;20847;-75
2022/08/02 12:54:50;;;;;;;0.70;0.60;;;31.20;51.90;;;;;;5034773;28;20443;-76
2022/08/02 12:57:18;;;;;;;0.70;0.60;;;30.80;52.10;;;;;;5034999;28;20447;-76
2022/08/02 12:59:53;;;;;;;0.70;0.70;;;30.70;53.80;;;;;;5035010;28;20447;-75
2022/08/02 13:02:20;;;;;;;1.23;0.60;;;30.00;51.80;;;;;;5034890;28;20487;-76
2022/08/02 13:04:46;;;;;;;0.70;0.60;;;29.50;53.40;;;;;;5035193;28;20534;-75
2022/08/02 13:07:13;;;;;;;0.80;0.70;;;29.50;52.70;;;;;;5034707;28;20479;-75
2022/08/02 13:09:44;;;;;;;0.70;0.60;;;29.80;53.90;;;;;;5034657;28;20448;-76
2022/08/02 13:12:11;;;;;;;0.70;0.60;;;29.70;52.80;;;;;;5035036;28;20903;-75
2022/08/02 13:14:39;;;;;;;0.70;0.60;;;29.50;52.30;;;;;;5034888;28;21006;-74
2022/08/02 13:17:05;;;;;;;0.70;0.70;;;29.40;52.50;;;;;;5034715;28;20466;-74
2022/08/02 13:19:32;;;;;;;0.70;0.60;;;29.70;52.60;;;;;;5034743;28;20867;-76
2022/08/02 13:21:59;;;;;;;0.70;0.60;;;29.90;54.80;;;;;;5035164;28;20480;-77
2022/08/02 13:24:25;;;;;;;0.70;0.60;;;29.90;53.00;;;;;;5034545;28;20501;-76
2022/08/02 13:26:53;;;;;;;0.70;0.60;;;30.10;52.70;;;;;;5034798;28;20483;-76
2022/08/02 13:29:20;;;;;;;0.70;0.60;;;30.60;51.80;;;;;;5034328;28;20459;-75
2022/08/02 13:31:47;;;;;;;0.80;0.70;;;31.00;50.50;;;;;;5034208;28;20475;-76
2022/08/02 13:34:15;;;;;;;0.70;0.50;;;31.20;50.20;;;;;;5034538;28;20455;-76
2022/08/02 13:36:42;;;;;;;0.90;0.70;;;31.40;51.00;;;;;;5033644;28;20447;-76
2022/08/02 13:39:10;;;;;;;0.80;0.70;;;31.40;50.70;;;;;;5033626;28;20946;-75
2022/08/02 13:41:37;;;;;;;0.70;0.70;;;31.30;50.40;;;;;;5034187;28;20482;-76
2022/08/02 13:44:05;;;;;;;0.80;0.67;;;31.50;51.60;;;;;;5033916;28;20501;-76
2022/08/02 13:46:34;;;;;;;0.70;0.60;;;31.20;50.50;;;;;;5033674;28;20935;-76
2022/08/02 13:49:00;;;;;;;0.70;0.60;;;30.90;52.00;;;;;;5033964;28;20460;-74
2022/08/02 13:51:27;;;;;;;0.70;0.60;;;30.70;51.40;;;;;;5033162;28;20499;-78
2022/08/02 13:53:54;;;;;;;0.70;0.63;;;30.70;51.80;;;;;;5036997;28;20946;-75
2022/08/02 13:56:20;;;;;;;0.80;0.70;;;30.50;51.60;;;;;;5033572;28;20814;-77
2022/08/02 13:58:47;;;;;;;0.70;0.60;;;30.00;51.80;;;;;;5033740;28;20868;-77
2022/08/02 14:01:15;;;;;;;0.70;0.60;;;29.80;52.20;;;;;;5033541;28;20854;-77
2022/08/02 14:03:42;;;;;;;0.70;0.70;;;29.80;52.20;;;;;;5033584;28;20821;-77
2022/08/02 14:06:09;;;;;;;0.80;0.70;;;30.00;53.00;;;;;;5033206;28;21022;-76
2022/08/02 14:08:37;;;;;;;0.70;0.60;;;30.40;52.90;;;;;;5033419;28;20494;-76
2022/08/02 14:11:04;;;;;;;0.70;0.60;;;30.50;51.60;;;;;;5033107;28;20475;-76
2022/08/02 14:13:30;;;;;;;0.80;0.60;;;30.70;50.70;;;;;;5033486;28;20447;-76
2022/08/02 14:15:58;;;;;;;0.70;0.60;;;30.90;51.10;;;;;;5033517;28;20522;-76
2022/08/02 14:18:26;;;;;;;0.80;0.70;;;31.30;49.70;;;;;;5033726;28;20521;-77
2022/08/02 14:20:53;;;;;;;0.70;0.60;;;31.50;48.10;;;;;;5033326;28;20471;-77
2022/08/02 14:23:20;;;;;;;0.70;0.60;;;31.60;51.10;;;;;;5033062;28;20951;-77
2022/08/02 14:25:46;;;;;;;0.70;0.60;;;31.70;48.90;;;;;;5033213;28;20451;-76
2022/08/02 14:28:14;;;;;;;0.70;0.63;;;31.70;49.90;;;;;;5033693;28;20505;-80
2022/08/02 14:30:41;;;;;;;0.80;0.70;;;31.10;50.40;;;;;;5033989;28;20454;-76
2022/08/02 14:33:07;;;;;;;0.70;0.60;;;31.00;50.50;;;;;;5033213;28;20452;-76
2022/08/02 14:35:35;;;;;;;0.80;0.60;;;31.10;50.00;;;;;;5033008;28;20958;-76
2022/08/02 14:38:02;;;;;;;0.80;0.60;;;31.50;50.10;;;;;;5034101;28;20886;-76
2022/08/02 14:40:28;;;;;;;0.80;0.70;;;31.80;49.70;;;;;;5033437;28;20443;-76
2022/08/02 14:42:55;;;;;;;0.70;0.70;;;31.90;49.10;;;;;;5033169;28;20448;-75
2022/08/02 14:45:24;;;;;;;0.70;0.60;;;31.80;48.50;;;;;;5033180;28;20463;-74
2022/08/02 14:47:51;;;;;;;0.70;0.60;;;31.90;48.90;;;;;;5033156;28;20482;-74
2022/08/02 14:50:18;;;;;;;1.10;0.63;;;32.00;49.10;;;;;;5033182;28;20451;-74
2022/08/02 14:52:47;;;;;;;0.70;0.60;;;31.80;49.60;;;;;;5033761;28;20809;-74
2022/08/02 14:55:14;;;;;;;0.70;0.67;;;31.90;49.10;;;;;;5033228;28;20450;-74
2022/08/02 14:57:41;;;;;;;0.70;0.60;;;31.60;48.60;;;;;;5033171;28;20451;-74
2022/08/02 15:00:09;;;;;;;0.70;0.60;;;31.60;48.90;;;;;;5033304;28;20857;-74
2022/08/02 15:02:36;;;;;;;1.93;0.70;;;31.60;48.70;;;;;;5035526;28;20483;-74
2022/08/02 15:05:03;;;;;;;0.80;0.70;;;31.70;48.60;;;;;;5037071;28;20447;-75
2022/08/02 15:07:29;;;;;;;0.70;0.60;;;31.50;47.50;;;;;;5036922;28;20506;-74
2022/08/02 15:09:57;;;;;;;0.70;0.60;;;31.00;48.10;;;;;;5036524;28;20866;-73
2022/08/02 15:12:24;;;;;;;0.70;0.70;;;30.80;49.00;;;;;;5036987;28;20835;-74
2022/08/02 15:14:54;;;;;;;0.80;0.60;;;30.80;49.60;;;;;;5038813;28;20864;-72
2022/08/02 15:17:20;;;;;;;0.70;0.60;;;31.10;49.10;;;;;;5036558;28;20826;-75
2022/08/02 15:19:47;;;;;;;0.70;0.60;;;31.50;46.90;;;;;;5036209;28;20938;-75
2022/08/02 15:22:14;;;;;;;0.70;0.60;;;31.70;46.80;;;;;;5036377;28;20467;-74
2022/08/02 15:24:40;;;;;;;0.70;0.60;;;32.00;47.10;;;;;;5036535;28;20466;-75
2022/08/02 15:27:12;;;;;;;0.90;0.70;;;32.30;46.20;;;;;;5036459;28;20475;-74
2022/08/02 15:29:39;;;;;;;0.70;0.63;;;32.90;45.10;;;;;;5036926;28;20451;-74
2022/08/02 15:32:06;;;;;;;0.70;0.60;;;33.30;44.00;;;;;;5036366;28;20525;-74
2022/08/02 15:34:32;;;;;;;0.70;0.60;;;33.50;44.40;;;;;;5035907;28;20942;-74
2022/08/02 15:36:59;;;;;;;0.70;0.60;;;33.30;45.90;;;;;;5036241;28;20448;-74
2022/08/02 15:39:26;;;;;;;0.70;0.60;;;33.00;45.90;;;;;;5036163;28;20444;-74
2022/08/02 15:41:52;;;;;;;0.70;0.67;;;32.70;46.60;;;;;;5036352;28;20505;-74
2022/08/02 15:44:20;;;;;;;0.80;0.70;;;32.70;46.40;;;;;;5036070;28;20459;-74
2022/08/02 15:46:47;;;;;;;0.70;0.60;;;32.20;47.30;;;;;;5035698;28;21013;-74
2022/08/02 15:49:14;;;;;;;0.90;0.70;;;31.90;47.20;;;;;;5036064;28;20448;-73
2022/08/02 15:51:40;;;;;;;0.70;0.70;;;31.60;47.60;;;;;;5035930;28;20872;-74
2022/08/02 15:54:07;;;;;;;0.90;0.60;;;31.50;47.40;;;;;;5035819;28;20456;-74
2022/08/02 15:56:34;;;;;;;0.80;0.70;;;31.40;47.60;;;;;;5035912;28;20444;-73
2022/08/02 15:59:00;;;;;;;0.80;0.60;;;31.10;47.80;;;;;;5036125;28;20448;-73